createdAt,value
2017-12-13T00:01:10.944Z,90.80
2017-12-13T00:03:39.272Z,91.10
2017-12-13T00:06:07.593Z,91.34
2017-12-13T00:08:35.947Z,91.41
2017-12-13T00:11:04.302Z,91.53
2017-12-13T00:13:32.649Z,91.80
2017-12-13T00:16:01.008Z,91.96
2017-12-13T00:18:29.338Z,92.26
2017-12-13T00:20:58.451Z,92.57
2017-12-13T00:23:27.602Z,92.80
2017-12-13T00:25:55.920Z,93.42
2017-12-13T00:28:24.244Z,93.51
2017-12-13T00:30:52.619Z,93.39
2017-12-13T00:33:20.952Z,93.30
2017-12-13T00:35:49.271Z,93.35
2017-12-13T00:38:17.636Z,93.39
2017-12-13T00:40:45.959Z,93.35
2017-12-13T00:43:14.290Z,93.28
2017-12-13T00:45:42.635Z,92.89
2017-12-13T00:48:11.002Z,92.08
2017-12-13T00:50:39.361Z,91.47
2017-12-13T00:53:07.697Z,90.79
2017-12-13T00:55:36.033Z,90.41
2017-12-13T00:58:04.409Z,90.09
2017-12-13T01:00:33.498Z,89.63
2017-12-13T01:03:01.858Z,88.88
2017-12-13T01:05:30.212Z,88.31
2017-12-13T01:07:58.548Z,87.72
2017-12-13T01:10:26.869Z,87.37
2017-12-13T01:12:55.307Z,87.25
2017-12-13T01:15:23.633Z,87.59
2017-12-13T01:17:51.961Z,87.83
2017-12-13T01:20:20.321Z,87.67
2017-12-13T01:22:48.671Z,87.76
2017-12-13T01:25:17.035Z,87.98
2017-12-13T01:27:46.144Z,88.30
2017-12-13T01:30:14.479Z,88.55
2017-12-13T01:32:42.799Z,88.98
2017-12-13T01:35:11.140Z,89.11
2017-12-13T01:37:39.465Z,88.98
2017-12-13T01:40:07.779Z,88.79
2017-12-13T01:42:36.116Z,88.54
2017-12-13T01:45:04.438Z,88.46
2017-12-13T01:47:32.791Z,88.52
2017-12-13T01:50:01.161Z,88.65
2017-12-13T01:52:29.488Z,88.83
2017-12-13T01:54:57.815Z,88.94
2017-12-13T01:57:26.260Z,88.97
2017-12-13T01:59:55.362Z,89.14
2017-12-13T02:02:24.444Z,89.28
2017-12-13T02:04:53.551Z,89.34
2017-12-13T02:07:22.639Z,89.42
2017-12-13T02:09:51.771Z,89.57
2017-12-13T02:12:20.099Z,89.70
2017-12-13T02:14:48.483Z,89.73
2017-12-13T02:17:16.800Z,89.58
2017-12-13T02:19:45.132Z,89.59
2017-12-13T02:22:13.457Z,89.69
2017-12-13T02:24:41.828Z,89.62
2017-12-13T02:27:10.178Z,89.80
2017-12-13T02:29:39.278Z,89.96
2017-12-13T02:32:08.395Z,90.15
2017-12-13T02:34:36.713Z,90.24
2017-12-13T02:37:05.039Z,90.13
2017-12-13T02:39:33.427Z,90.04
2017-12-13T02:42:01.757Z,89.94
2017-12-13T02:44:30.170Z,89.96
2017-12-13T02:46:58.621Z,89.90
2017-12-13T02:49:26.945Z,89.91
2017-12-13T02:51:56.096Z,89.75
2017-12-13T02:54:24.468Z,89.33
2017-12-13T02:56:52.793Z,89.30
2017-12-13T02:59:21.111Z,89.27
2017-12-13T03:01:49.447Z,89.29
2017-12-13T03:04:17.772Z,89.26
2017-12-13T03:06:46.111Z,89.25
2017-12-13T03:09:14.446Z,88.60
2017-12-13T03:11:43.023Z,88.16
2017-12-13T03:14:11.380Z,87.90
2017-12-13T03:16:39.704Z,88.07
2017-12-13T03:19:08.042Z,88.29
2017-12-13T03:21:36.412Z,88.27
2017-12-13T03:24:04.757Z,88.36
2017-12-13T03:26:33.072Z,88.56
2017-12-13T03:29:01.412Z,88.78
2017-12-13T03:31:29.773Z,88.79
2017-12-13T03:33:58.874Z,88.64
2017-12-13T03:36:27.976Z,88.84
2017-12-13T03:38:56.304Z,88.64
2017-12-13T03:41:24.628Z,88.64
2017-12-13T03:43:53.843Z,88.60
2017-12-13T03:46:22.159Z,88.56
2017-12-13T03:48:50.483Z,88.41
2017-12-13T03:51:18.876Z,88.47
2017-12-13T03:53:47.201Z,88.42
2017-12-13T03:56:15.905Z,88.41
2017-12-13T03:58:45.088Z,88.64
2017-12-13T04:01:13.427Z,88.66
2017-12-13T04:03:41.752Z,88.60
2017-12-13T04:06:10.883Z,88.65
2017-12-13T04:08:39.211Z,88.75
2017-12-13T04:11:07.544Z,88.84
2017-12-13T04:13:35.911Z,88.66
2017-12-13T04:16:04.243Z,88.70
2017-12-13T04:18:32.588Z,88.67
2017-12-13T04:21:00.913Z,88.46
2017-12-13T04:23:29.242Z,88.29
2017-12-13T04:25:57.601Z,88.25
2017-12-13T04:28:25.930Z,88.11
2017-12-13T04:30:54.273Z,88.05
2017-12-13T04:33:22.629Z,87.96
2017-12-13T04:35:51.716Z,87.87
2017-12-13T04:38:20.820Z,87.97
2017-12-13T04:40:49.199Z,88.11
2017-12-13T04:43:17.536Z,87.97
2017-12-13T04:45:46.148Z,87.82
2017-12-13T04:48:15.271Z,87.46
2017-12-13T04:50:43.604Z,87.27
2017-12-13T04:53:11.947Z,87.04
2017-12-13T04:55:40.268Z,87.35
2017-12-13T04:58:09.368Z,87.50
2017-12-13T05:00:38.489Z,86.87
2017-12-13T05:03:06.815Z,86.66
2017-12-13T05:05:35.140Z,86.44
2017-12-13T05:08:03.480Z,86.17
2017-12-13T05:10:31.796Z,86.08
2017-12-13T05:13:00.128Z,86.31
2017-12-13T05:15:28.496Z,86.11
2017-12-13T05:17:56.884Z,85.54
2017-12-13T05:20:25.240Z,85.75
2017-12-13T05:22:53.595Z,85.42
2017-12-13T05:25:21.925Z,85.67
2017-12-13T05:27:50.247Z,85.59
2017-12-13T05:30:18.595Z,85.77
2017-12-13T05:32:47.698Z,85.69
2017-12-13T05:35:16.792Z,85.41
2017-12-13T05:37:45.897Z,85.42
2017-12-13T05:40:14.981Z,85.42
2017-12-13T05:42:44.106Z,85.16
2017-12-13T05:45:12.432Z,85.59
2017-12-13T05:47:40.794Z,86.14
2017-12-13T05:50:09.144Z,86.60
2017-12-13T05:52:37.469Z,86.96
2017-12-13T05:55:05.801Z,87.24
2017-12-13T05:57:34.344Z,87.35
2017-12-13T06:00:02.673Z,87.61
2017-12-13T06:02:30.994Z,87.73
2017-12-13T06:04:59.352Z,87.71
2017-12-13T06:07:27.687Z,87.67
2017-12-13T06:09:56.039Z,87.48
2017-12-13T06:12:25.163Z,87.36
2017-12-13T06:14:53.488Z,87.52
2017-12-13T06:17:21.820Z,87.69
2017-12-13T06:19:50.159Z,87.52
2017-12-13T06:22:18.499Z,87.39
2017-12-13T06:24:46.821Z,90.41
2017-12-13T06:27:15.170Z,92.58
2017-12-13T06:29:43.517Z,88.37
2017-12-13T06:32:11.844Z,87.25
2017-12-13T06:34:40.179Z,87.30
2017-12-13T06:37:08.492Z,86.60
2017-12-13T06:39:36.831Z,86.59
2017-12-13T06:42:05.164Z,86.35
2017-12-13T06:44:33.498Z,86.74
2017-12-13T06:47:01.846Z,86.60
2017-12-13T06:49:30.178Z,86.96
2017-12-13T06:51:58.504Z,86.48
2017-12-13T06:54:26.820Z,86.70
2017-12-13T06:56:55.171Z,86.76
2017-12-13T06:59:23.498Z,87.31
2017-12-13T07:01:51.820Z,87.51
2017-12-13T07:04:20.181Z,87.88
2017-12-13T07:06:49.287Z,87.84
2017-12-13T07:09:17.624Z,87.72
2017-12-13T07:11:45.983Z,87.52
2017-12-13T07:14:14.296Z,87.59
2017-12-13T07:16:43.392Z,87.71
2017-12-13T07:19:12.519Z,87.86
2017-12-13T07:21:40.840Z,88.28
2017-12-13T07:24:09.168Z,87.55
2017-12-13T07:26:37.506Z,87.33
2017-12-13T07:29:05.832Z,87.32
2017-12-13T07:31:34.160Z,87.36
2017-12-13T07:34:02.499Z,87.30
2017-12-13T07:36:30.833Z,87.36
2017-12-13T07:38:59.927Z,87.27
2017-12-13T07:41:29.039Z,87.21
2017-12-13T07:43:57.367Z,86.85
2017-12-13T07:46:25.744Z,86.59
2017-12-13T07:48:54.105Z,85.89
2017-12-13T07:51:22.424Z,85.76
2017-12-13T07:53:50.770Z,85.41
2017-12-13T07:56:19.720Z,85.81
2017-12-13T07:58:48.811Z,85.99
2017-12-13T08:01:17.892Z,86.14
2017-12-13T08:03:47.004Z,86.18
2017-12-13T08:06:16.104Z,85.57
2017-12-13T08:08:45.191Z,85.08
2017-12-13T08:11:14.305Z,84.45
2017-12-13T08:13:42.623Z,84.00
2017-12-13T08:16:11.724Z,83.46
2017-12-13T08:18:40.844Z,82.71
2017-12-13T08:21:09.943Z,82.49
2017-12-13T08:23:39.044Z,82.29
2017-12-13T08:26:07.375Z,82.32
2017-12-13T08:28:35.705Z,82.18
2017-12-13T08:31:04.811Z,81.54
2017-12-13T08:33:33.143Z,81.60
2017-12-13T08:36:01.484Z,82.01
2017-12-13T08:38:29.806Z,81.91
2017-12-13T08:40:58.119Z,81.81
2017-12-13T08:43:27.224Z,82.62
2017-12-13T08:45:55.540Z,82.12
2017-12-13T08:48:23.851Z,82.55
2017-12-13T08:50:52.986Z,82.41
2017-12-13T08:53:21.308Z,82.79
2017-12-13T08:55:49.635Z,82.92
2017-12-13T08:58:17.964Z,83.05
2017-12-13T09:00:46.281Z,82.65
2017-12-13T09:03:14.622Z,82.52
2017-12-13T09:05:42.942Z,82.15
2017-12-13T09:08:11.259Z,82.10
2017-12-13T09:10:39.598Z,82.38
2017-12-13T09:13:07.939Z,82.28
2017-12-13T09:15:37.048Z,82.18
2017-12-13T09:18:06.179Z,81.89
2017-12-13T09:20:34.495Z,81.97
2017-12-13T09:23:02.807Z,81.49
2017-12-13T09:25:31.917Z,81.23
2017-12-13T09:28:00.231Z,81.26
2017-12-13T09:30:28.579Z,81.22
2017-12-13T09:32:56.910Z,80.88
2017-12-13T09:35:25.229Z,80.93
2017-12-13T09:37:53.576Z,80.88
2017-12-13T09:40:22.664Z,81.13
2017-12-13T09:42:50.979Z,80.96
2017-12-13T09:45:19.336Z,80.46
2017-12-13T09:47:48.428Z,79.90
2017-12-13T09:50:17.510Z,80.10
2017-12-13T09:52:45.845Z,80.46
2017-12-13T09:55:14.163Z,80.07
2017-12-13T09:57:43.260Z,79.92
2017-12-13T10:00:11.596Z,78.81
2017-12-13T10:02:39.911Z,78.58
2017-12-13T10:05:08.228Z,78.50
2017-12-13T10:07:36.588Z,78.07
2017-12-13T10:10:05.668Z,78.13
2017-12-13T10:12:33.980Z,78.15
2017-12-13T10:15:02.393Z,77.61
2017-12-13T10:17:31.746Z,76.50
2017-12-13T10:20:00.085Z,76.22
2017-12-13T10:22:28.438Z,75.63
2017-12-13T10:24:56.750Z,75.94
2017-12-13T10:27:25.293Z,76.13
2017-12-13T10:29:53.653Z,75.48
2017-12-13T10:32:21.977Z,76.05
2017-12-13T10:34:50.295Z,76.47
2017-12-13T10:37:19.415Z,76.52
2017-12-13T10:39:47.731Z,76.60
2017-12-13T10:42:16.044Z,76.41
2017-12-13T10:44:45.923Z,76.26
2017-12-13T10:47:14.261Z,75.91
2017-12-13T10:49:42.576Z,76.26
2017-12-13T10:52:10.931Z,75.94
2017-12-13T10:54:39.290Z,76.49
2017-12-13T10:57:08.340Z,75.98
2017-12-13T10:59:36.683Z,76.09
2017-12-13T11:02:05.000Z,76.92
2017-12-13T11:04:33.323Z,77.07
2017-12-13T11:07:01.671Z,77.12
2017-12-13T11:09:30.761Z,76.67
2017-12-13T11:11:59.845Z,76.79
2017-12-13T11:14:28.177Z,77.27
2017-12-13T11:16:56.484Z,77.89
2017-12-13T11:19:24.792Z,77.27
2017-12-13T11:21:53.888Z,77.21
2017-12-13T11:24:22.963Z,76.50
2017-12-13T11:26:51.285Z,76.34
2017-12-13T11:29:19.615Z,76.37
2017-12-13T11:31:47.951Z,81.79
2017-12-13T11:34:16.259Z,76.09
2017-12-13T11:36:44.607Z,75.75
2017-12-13T11:39:12.938Z,74.97
2017-12-13T11:41:42.021Z,75.00
2017-12-13T11:44:10.370Z,74.98
2017-12-13T11:46:38.727Z,75.23
2017-12-13T11:49:07.035Z,75.44
2017-12-13T11:51:35.381Z,74.27
2017-12-13T11:54:05.638Z,74.99
2017-12-13T11:56:33.955Z,75.92
2017-12-13T11:59:02.289Z,76.45
2017-12-13T12:01:30.631Z,76.87
2017-12-13T12:03:58.950Z,75.84
2017-12-13T12:06:27.385Z,75.46
2017-12-13T12:08:55.695Z,74.78
2017-12-13T12:11:24.780Z,75.30
2017-12-13T12:13:53.115Z,75.85
2017-12-13T12:16:22.206Z,75.62
2017-12-13T12:18:51.293Z,74.83
2017-12-13T12:21:19.640Z,74.34
2017-12-13T12:23:47.952Z,74.14
2017-12-13T12:26:17.042Z,74.54
2017-12-13T12:28:45.395Z,75.09
2017-12-13T12:31:13.703Z,75.56
2017-12-13T12:33:42.008Z,75.42
2017-12-13T12:36:10.352Z,75.12
2017-12-13T12:38:38.681Z,74.53
2017-12-13T12:41:06.998Z,74.66
2017-12-13T12:43:35.357Z,74.83
2017-12-13T12:46:03.689Z,74.68
2017-12-13T12:48:32.019Z,74.31
2017-12-13T12:51:01.650Z,74.32
2017-12-13T12:53:30.002Z,74.47
2017-12-13T12:55:58.344Z,74.67
2017-12-13T12:58:26.662Z,74.58
2017-12-13T13:00:56.610Z,73.74
2017-12-13T13:03:25.732Z,73.09
2017-12-13T13:05:54.045Z,72.79
2017-12-13T13:08:22.388Z,73.20
2017-12-13T13:10:50.757Z,73.74
2017-12-13T13:13:19.079Z,73.99
2017-12-13T13:15:47.409Z,73.19
2017-12-13T13:18:15.768Z,73.18
2017-12-13T13:20:44.852Z,73.20
2017-12-13T13:23:13.168Z,73.05
2017-12-13T13:25:41.509Z,72.71
2017-12-13T13:28:09.863Z,73.15
2017-12-13T13:30:38.172Z,73.77
2017-12-13T13:33:06.525Z,74.21
2017-12-13T13:35:34.841Z,74.02
2017-12-13T13:38:03.938Z,74.32
2017-12-13T13:40:32.283Z,74.57
2017-12-13T13:43:00.593Z,74.58
2017-12-13T13:45:29.688Z,74.85
2017-12-13T13:47:58.034Z,74.72
2017-12-13T13:50:26.359Z,74.47
2017-12-13T13:52:54.703Z,74.15
2017-12-13T13:55:23.021Z,74.13
2017-12-13T13:57:51.328Z,72.98
2017-12-13T14:00:19.657Z,73.02
2017-12-13T14:02:48.751Z,73.10
2017-12-13T14:05:17.844Z,73.23
2017-12-13T14:07:47.751Z,73.38
2017-12-13T14:10:16.864Z,73.78
2017-12-13T14:12:45.196Z,73.59
2017-12-13T14:15:13.521Z,73.80
2017-12-13T14:17:41.829Z,73.90
2017-12-13T14:20:10.200Z,74.56
2017-12-13T14:22:38.528Z,73.89
2017-12-13T14:25:06.848Z,74.60
2017-12-13T14:27:35.189Z,74.74
2017-12-13T14:30:04.268Z,74.59
2017-12-13T14:32:32.586Z,74.13
2017-12-13T14:35:00.941Z,74.40
2017-12-13T14:37:30.016Z,73.72
2017-12-13T14:39:58.340Z,72.98
2017-12-13T14:42:26.704Z,73.11
2017-12-13T14:44:55.819Z,73.59
2017-12-13T14:47:24.143Z,73.74
2017-12-13T14:49:52.481Z,73.17
2017-12-13T14:52:20.800Z,72.50
2017-12-13T14:54:49.138Z,73.08
2017-12-13T14:57:17.475Z,74.27
2017-12-13T14:59:46.568Z,75.44
2017-12-13T15:02:14.894Z,76.82
2017-12-13T15:04:43.247Z,77.66
2017-12-13T15:07:11.578Z,79.01
2017-12-13T15:09:39.896Z,80.24
2017-12-13T15:12:08.253Z,80.37
2017-12-13T15:14:37.350Z,82.05
2017-12-13T15:17:06.472Z,82.21
2017-12-13T15:19:34.868Z,82.63
2017-12-13T15:22:03.271Z,82.35
2017-12-13T15:24:31.774Z,82.75
2017-12-13T15:27:00.143Z,82.81
2017-12-13T15:29:28.481Z,83.28
2017-12-13T15:31:56.824Z,82.17
2017-12-13T15:34:25.971Z,82.01
2017-12-13T15:36:54.369Z,82.33
2017-12-13T15:39:22.711Z,82.32
2017-12-13T15:41:51.136Z,82.67
2017-12-13T15:44:19.525Z,82.77
2017-12-13T15:46:47.897Z,82.88
2017-12-13T15:49:16.262Z,81.67
2017-12-13T15:51:44.750Z,81.77
2017-12-13T15:54:13.083Z,82.54
2017-12-13T15:56:41.446Z,82.82
2017-12-13T15:59:09.782Z,83.15
2017-12-13T16:01:38.145Z,82.83
2017-12-13T16:04:06.511Z,83.55
2017-12-13T16:06:34.852Z,83.37
2017-12-13T16:09:03.241Z,84.04
2017-12-13T16:11:31.591Z,83.93
2017-12-13T16:14:00.004Z,83.91
2017-12-13T16:16:28.377Z,84.81
2017-12-13T16:18:56.704Z,84.78
2017-12-13T16:21:25.036Z,85.02
2017-12-13T16:23:53.456Z,85.16
2017-12-13T16:26:21.808Z,85.46
2017-12-13T16:28:50.188Z,85.80
2017-12-13T16:31:18.597Z,85.98
2017-12-13T16:33:46.976Z,86.44
2017-12-13T16:36:15.338Z,86.60
2017-12-13T16:38:43.701Z,86.79
2017-12-13T16:41:12.188Z,86.75
2017-12-13T16:43:40.561Z,86.83
2017-12-13T16:46:08.932Z,87.22
2017-12-13T16:48:37.307Z,87.04
2017-12-13T16:51:05.680Z,87.08
2017-12-13T16:53:34.820Z,86.93
2017-12-13T16:56:03.151Z,87.07
2017-12-13T16:58:31.655Z,86.94
2017-12-13T17:01:00.024Z,86.90
2017-12-13T17:03:28.365Z,87.25
2017-12-13T17:05:56.791Z,87.09
2017-12-13T17:08:25.152Z,87.13
2017-12-13T17:10:53.488Z,87.14
2017-12-13T17:13:21.815Z,87.02
2017-12-13T17:15:50.191Z,87.23
2017-12-13T17:18:18.521Z,87.82
2017-12-13T17:20:46.869Z,88.03
2017-12-13T17:23:15.223Z,88.27
2017-12-13T17:25:43.588Z,88.45
2017-12-13T17:28:12.705Z,88.36
2017-12-13T17:30:41.040Z,88.32
2017-12-13T17:33:10.264Z,88.23
2017-12-13T17:35:39.432Z,88.02
2017-12-13T17:38:07.751Z,88.24
2017-12-13T17:40:36.117Z,88.28
2017-12-13T17:43:05.216Z,88.73
2017-12-13T17:45:33.548Z,88.82
2017-12-13T17:48:01.876Z,88.90
2017-12-13T17:50:30.248Z,88.69
2017-12-13T17:52:59.359Z,88.59
2017-12-13T17:55:27.724Z,88.80
2017-12-13T17:57:56.840Z,88.71
2017-12-13T18:00:26.912Z,88.83
2017-12-13T18:02:55.240Z,88.74
2017-12-13T18:05:23.736Z,88.67
2017-12-13T18:07:52.071Z,88.51
2017-12-13T18:10:21.171Z,88.42
2017-12-13T18:12:50.269Z,88.55
2017-12-13T18:15:18.620Z,88.28
2017-12-13T18:17:47.736Z,87.92
2017-12-13T18:20:16.816Z,88.53
2017-12-13T18:22:45.156Z,88.14
2017-12-13T18:25:13.556Z,88.05
2017-12-13T18:27:41.899Z,88.21
2017-12-13T18:30:10.313Z,87.75
2017-12-13T18:32:39.454Z,87.93
2017-12-13T18:35:07.807Z,88.37
2017-12-13T18:37:36.133Z,88.55
2017-12-13T18:40:05.861Z,88.30
2017-12-13T18:42:34.288Z,88.39
2017-12-13T18:45:03.417Z,88.40
2017-12-13T18:47:31.799Z,88.31
2017-12-13T18:50:00.165Z,88.53
2017-12-13T18:52:28.516Z,88.05
2017-12-13T18:54:57.634Z,88.26
2017-12-13T18:57:26.013Z,88.53
2017-12-13T18:59:54.406Z,88.26
2017-12-13T19:02:22.856Z,88.20
2017-12-13T19:04:52.026Z,87.39
2017-12-13T19:07:20.377Z,87.69
2017-12-13T19:09:49.097Z,87.72
2017-12-13T19:12:18.240Z,87.84
2017-12-13T19:14:46.572Z,87.43
2017-12-13T19:17:14.988Z,87.59
2017-12-13T19:19:43.343Z,87.02
2017-12-13T19:22:12.490Z,87.04
2017-12-13T19:24:40.827Z,86.90
2017-12-13T19:27:09.965Z,86.72
2017-12-13T19:29:38.337Z,86.68
2017-12-13T19:32:06.662Z,86.86
2017-12-13T19:34:35.037Z,86.78
2017-12-13T19:37:04.119Z,86.77
2017-12-13T19:39:32.480Z,86.51
2017-12-13T19:42:00.846Z,86.30
2017-12-13T19:44:29.190Z,86.38
2017-12-13T19:46:57.524Z,86.44
2017-12-13T19:49:25.915Z,86.31
2017-12-13T19:51:54.241Z,86.24
2017-12-13T19:54:22.585Z,86.08
2017-12-13T19:56:51.698Z,86.26
2017-12-13T19:59:20.045Z,86.43
2017-12-13T20:01:48.396Z,85.86
2017-12-13T20:04:16.810Z,85.82
2017-12-13T20:06:45.142Z,85.74
2017-12-13T20:09:13.467Z,85.57
2017-12-13T20:11:41.812Z,85.09
2017-12-13T20:14:10.146Z,85.22
2017-12-13T20:16:38.485Z,85.15
2017-12-13T20:19:06.833Z,84.78
2017-12-13T20:21:35.188Z,84.69
2017-12-13T20:24:03.622Z,84.43
2017-12-13T20:26:31.935Z,84.71
2017-12-13T20:29:01.019Z,84.59
2017-12-13T20:31:30.196Z,84.56
2017-12-13T20:33:58.536Z,84.77
2017-12-13T20:36:26.884Z,84.77
2017-12-13T20:38:55.244Z,84.81
2017-12-13T20:41:23.584Z,84.91
2017-12-13T20:43:51.894Z,84.62
2017-12-13T20:46:20.248Z,84.71
2017-12-13T20:48:48.571Z,84.51
2017-12-13T20:51:17.690Z,84.75
2017-12-13T20:53:46.039Z,84.62
2017-12-13T20:56:15.147Z,84.07
2017-12-13T20:58:43.624Z,84.40
2017-12-13T21:01:11.980Z,84.60
2017-12-13T21:03:40.323Z,84.84
2017-12-13T21:06:08.657Z,84.82
2017-12-13T21:08:37.772Z,84.83
2017-12-13T21:11:06.115Z,85.13
2017-12-13T21:13:35.228Z,85.27
2017-12-13T21:16:04.381Z,85.14
2017-12-13T21:18:32.725Z,85.10
2017-12-13T21:21:01.140Z,85.14
2017-12-13T21:23:29.479Z,85.36
2017-12-13T21:25:57.793Z,85.37
2017-12-13T21:28:26.132Z,85.20
2017-12-13T21:30:54.465Z,85.13
2017-12-13T21:33:22.779Z,85.01
2017-12-13T21:35:51.143Z,85.03
2017-12-13T21:38:20.243Z,84.71
2017-12-13T21:40:49.355Z,84.62
2017-12-13T21:43:17.688Z,84.67
2017-12-13T21:45:46.041Z,84.79
2017-12-13T21:48:14.371Z,84.60
2017-12-13T21:50:43.480Z,84.52
2017-12-13T21:53:11.815Z,84.65
2017-12-13T21:55:40.152Z,84.48
2017-12-13T21:58:08.467Z,84.61
2017-12-13T22:00:36.792Z,85.18
2017-12-13T22:03:05.164Z,85.50
2017-12-13T22:05:33.483Z,85.26
2017-12-13T22:08:01.797Z,84.52
2017-12-13T22:10:30.135Z,84.71
2017-12-13T22:12:58.448Z,84.62
2017-12-13T22:15:26.781Z,84.64
2017-12-13T22:17:55.220Z,84.54
2017-12-13T22:20:24.311Z,84.84
2017-12-13T22:22:53.428Z,85.09
2017-12-13T22:25:21.802Z,84.88
2017-12-13T22:27:50.118Z,84.67
2017-12-13T22:30:18.466Z,84.85
2017-12-13T22:32:46.805Z,84.00
2017-12-13T22:35:15.124Z,84.55
2017-12-13T22:37:43.440Z,84.68
2017-12-13T22:40:11.786Z,84.55
2017-12-13T22:42:40.088Z,84.34
2017-12-13T22:45:08.421Z,83.98
2017-12-13T22:47:37.532Z,84.17
2017-12-13T22:50:05.860Z,84.09
2017-12-13T22:52:34.176Z,84.22
2017-12-13T22:55:02.528Z,84.15
2017-12-13T22:57:30.852Z,83.93
2017-12-13T22:59:59.170Z,83.86
2017-12-13T23:02:27.516Z,83.47
2017-12-13T23:04:55.858Z,83.29
2017-12-13T23:07:24.976Z,83.20
2017-12-13T23:09:53.335Z,83.65
2017-12-13T23:12:21.653Z,83.35
2017-12-13T23:14:50.001Z,83.31
2017-12-13T23:17:18.338Z,83.27
2017-12-13T23:19:46.682Z,83.24
2017-12-13T23:22:15.014Z,83.33
2017-12-13T23:24:43.370Z,83.14
2017-12-13T23:27:11.709Z,82.83
2017-12-13T23:29:40.042Z,82.57
2017-12-13T23:32:09.160Z,82.34
2017-12-13T23:34:37.500Z,82.26
2017-12-13T23:37:05.819Z,82.04
2017-12-13T23:39:34.188Z,81.97
2017-12-13T23:42:02.535Z,81.82
2017-12-13T23:44:30.879Z,82.03
2017-12-13T23:46:59.268Z,81.87
2017-12-13T23:49:27.700Z,82.23
2017-12-13T23:51:56.815Z,82.48
2017-12-13T23:54:25.273Z,82.81
2017-12-13T23:56:54.360Z,83.87
2017-12-13T23:59:23.506Z,83.74
